sensor_id;sensor_type;location;lat;lon;timestamp;pressure;altitude;pressure_sealevel;temperature;humidity
71666;BME280;59503;53.486;10.196;2023-05-14T00:00:11;102064.09;;;12.17;72.08
71666;BME280;59503;53.486;10.196;2023-05-14T00:02:36;102064.78;;;12.14;72.27
71666;BME280;59503;53.486;10.196;2023-05-14T00:05:02;102057.75;;;12.01;72.72
71666;BME280;59503;53.486;10.196;2023-05-14T00:07:28;102057.03;;;11.92;73.49
71666;BME280;59503;53.486;10.196;2023-05-14T00:09:58;102059.06;;;11.83;74.29
71666;BME280;59503;53.486;10.196;2023-05-14T00:12:24;102059.50;;;11.73;75.16
71666;BME280;59503;53.486;10.196;2023-05-14T00:14:51;102051.09;;;11.66;76.69
71666;BME280;59503;53.486;10.196;2023-05-14T00:17:17;102046.94;;;11.60;76.91
71666;BME280;59503;53.486;10.196;2023-05-14T00:19:42;102043.06;;;11.49;77.73
71666;BME280;59503;53.486;10.196;2023-05-14T00:22:08;102053.25;;;11.40;78.39
71666;BME280;59503;53.486;10.196;2023-05-14T00:24:34;102052.28;;;11.23;79.50
71666;BME280;59503;53.486;10.196;2023-05-14T00:27:01;102045.78;;;11.16;81.23
71666;BME280;59503;53.486;10.196;2023-05-14T00:29:27;102055.41;;;11.13;82.33
71666;BME280;59503;53.486;10.196;2023-05-14T00:31:52;102050.88;;;11.17;82.72
71666;BME280;59503;53.486;10.196;2023-05-14T00:34:18;102041.25;;;11.20;82.62
71666;BME280;59503;53.486;10.196;2023-05-14T00:36:43;102045.09;;;11.19;82.84
71666;BME280;59503;53.486;10.196;2023-05-14T00:39:09;102047.91;;;11.10;82.53
71666;BME280;59503;53.486;10.196;2023-05-14T00:41:34;102060.38;;;11.11;83.57
71666;BME280;59503;53.486;10.196;2023-05-14T00:44:00;102053.16;;;11.15;83.29
71666;BME280;59503;53.486;10.196;2023-05-14T00:46:26;102054.94;;;11.11;83.46
71666;BME280;59503;53.486;10.196;2023-05-14T00:48:52;102054.16;;;11.11;83.18
71666;BME280;59503;53.486;10.196;2023-05-14T00:51:18;102049.97;;;11.13;82.96
71666;BME280;59503;53.486;10.196;2023-05-14T00:53:45;102057.53;;;11.08;83.28
71666;BME280;59503;53.486;10.196;2023-05-14T00:56:11;102060.59;;;11.06;83.76
71666;BME280;59503;53.486;10.196;2023-05-14T00:58:37;102053.31;;;10.98;83.68
71666;BME280;59503;53.486;10.196;2023-05-14T01:01:03;102055.63;;;10.88;84.10
71666;BME280;59503;53.486;10.196;2023-05-14T01:03:29;102059.88;;;10.77;84.86
71666;BME280;59503;53.486;10.196;2023-05-14T01:06:17;102055.44;;;10.64;85.88
71666;BME280;59503;53.486;10.196;2023-05-14T01:08:58;102050.25;;;10.50;87.77
71666;BME280;59503;53.486;10.196;2023-05-14T01:17:14;102055.06;;;10.24;91.08
71666;BME280;59503;53.486;10.196;2023-05-14T01:19:45;102055.22;;;10.19;91.32
71666;BME280;59503;53.486;10.196;2023-05-14T01:22:11;102053.81;;;10.13;92.34
71666;BME280;59503;53.486;10.196;2023-05-14T01:24:37;102053.50;;;10.15;93.48
71666;BME280;59503;53.486;10.196;2023-05-14T01:27:15;102056.22;;;10.15;93.21
71666;BME280;59503;53.486;10.196;2023-05-14T01:29:45;102056.53;;;10.13;92.94
71666;BME280;59503;53.486;10.196;2023-05-14T01:32:14;102055.59;;;10.09;93.51
71666;BME280;59503;53.486;10.196;2023-05-14T01:34:43;102048.41;;;10.04;94.25
71666;BME280;59503;53.486;10.196;2023-05-14T01:37:10;102050.97;;;10.01;94.48
71666;BME280;59503;53.486;10.196;2023-05-14T01:39:37;102049.84;;;10.02;94.76
71666;BME280;59503;53.486;10.196;2023-05-14T01:42:04;102055.13;;;9.98;94.77
71666;BME280;59503;53.486;10.196;2023-05-14T01:44:32;102055.31;;;9.93;95.38
71666;BME280;59503;53.486;10.196;2023-05-14T01:46:57;102047.66;;;9.87;96.22
71666;BME280;59503;53.486;10.196;2023-05-14T01:49:23;102052.78;;;9.80;96.55
71666;BME280;59503;53.486;10.196;2023-05-14T01:51:48;102056.97;;;9.69;97.27
71666;BME280;59503;53.486;10.196;2023-05-14T01:54:14;102045.50;;;9.55;98.53
71666;BME280;59503;53.486;10.196;2023-05-14T01:56:39;102050.63;;;9.48;99.33
71666;BME280;59503;53.486;10.196;2023-05-14T01:59:05;102052.09;;;9.45;100.00
71666;BME280;59503;53.486;10.196;2023-05-14T02:01:30;102045.22;;;9.39;100.00
71666;BME280;59503;53.486;10.196;2023-05-14T02:03:56;102045.88;;;9.28;100.00
71666;BME280;59503;53.486;10.196;2023-05-14T02:06:21;102050.03;;;9.25;100.00
71666;BME280;59503;53.486;10.196;2023-05-14T02:08:47;102039.84;;;9.14;100.00
71666;BME280;59503;53.486;10.196;2023-05-14T02:11:12;102036.97;;;9.10;100.00
71666;BME280;59503;53.486;10.196;2023-05-14T02:13:38;102044.94;;;9.24;100.00
71666;BME280;59503;53.486;10.196;2023-05-14T02:16:04;102048.41;;;9.24;100.00
71666;BME280;59503;53.486;10.196;2023-05-14T02:18:30;102048.09;;;9.26;100.00
71666;BME280;59503;53.486;10.196;2023-05-14T02:20:55;102051.94;;;9.25;100.00
71666;BME280;59503;53.486;10.196;2023-05-14T02:23:22;102051.47;;;9.23;100.00
71666;BME280;59503;53.486;10.196;2023-05-14T02:25:47;102045.72;;;9.16;100.00
71666;BME280;59503;53.486;10.196;2023-05-14T02:28:12;102044.13;;;9.06;100.00
71666;BME280;59503;53.486;10.196;2023-05-14T02:30:38;102047.66;;;8.98;100.00
71666;BME280;59503;53.486;10.196;2023-05-14T02:33:04;102040.31;;;8.90;100.00
71666;BME280;59503;53.486;10.196;2023-05-14T02:35:29;102042.38;;;8.85;100.00
71666;BME280;59503;53.486;10.196;2023-05-14T02:37:55;102038.69;;;8.80;100.00
71666;BME280;59503;53.486;10.196;2023-05-14T02:40:20;102044.91;;;8.72;100.00
71666;BME280;59503;53.486;10.196;2023-05-14T02:42:45;102050.00;;;8.74;100.00
71666;BME280;59503;53.486;10.196;2023-05-14T02:45:11;102038.84;;;8.75;100.00
71666;BME280;59503;53.486;10.196;2023-05-14T02:47:36;102032.81;;;8.78;100.00
71666;BME280;59503;53.486;10.196;2023-05-14T02:50:02;102035.81;;;8.77;100.00
71666;BME280;59503;53.486;10.196;2023-05-14T02:52:30;102025.94;;;8.81;100.00
71666;BME280;59503;53.486;10.196;2023-05-14T02:54:55;102022.75;;;8.88;100.00
71666;BME280;59503;53.486;10.196;2023-05-14T02:57:21;102022.75;;;8.88;100.00
71666;BME280;59503;53.486;10.196;2023-05-14T02:59:46;102018.94;;;8.89;100.00
71666;BME280;59503;53.486;10.196;2023-05-14T03:02:13;102019.88;;;8.84;100.00
71666;BME280;59503;53.486;10.196;2023-05-14T03:04:39;102019.22;;;8.87;100.00
71666;BME280;59503;53.486;10.196;2023-05-14T03:07:04;102023.25;;;8.90;100.00
71666;BME280;59503;53.486;10.196;2023-05-14T03:09:29;102017.00;;;8.89;100.00
71666;BME280;59503;53.486;10.196;2023-05-14T03:11:55;102020.03;;;8.88;100.00
71666;BME280;59503;53.486;10.196;2023-05-14T03:14:20;102019.22;;;8.87;100.00
71666;BME280;59503;53.486;10.196;2023-05-14T03:16:45;102020.53;;;8.90;100.00
71666;BME280;59503;53.486;10.196;2023-05-14T03:19:11;102015.59;;;8.92;100.00
71666;BME280;59503;53.486;10.196;2023-05-14T03:21:36;102021.94;;;8.96;100.00
71666;BME280;59503;53.486;10.196;2023-05-14T03:24:02;102022.09;;;8.91;100.00
71666;BME280;59503;53.486;10.196;2023-05-14T03:26:27;102016.38;;;8.92;100.00
71666;BME280;59503;53.486;10.196;2023-05-14T03:28:53;102021.00;;;8.92;100.00
71666;BME280;59503;53.486;10.196;2023-05-14T03:31:18;102023.88;;;8.87;100.00
71666;BME280;59503;53.486;10.196;2023-05-14T03:33:44;102013.97;;;8.82;100.00
71666;BME280;59503;53.486;10.196;2023-05-14T03:36:09;102011.41;;;8.77;100.00
71666;BME280;59503;53.486;10.196;2023-05-14T03:38:35;102017.00;;;8.72;100.00
71666;BME280;59503;53.486;10.196;2023-05-14T03:41:00;102004.72;;;8.57;100.00
71666;BME280;59503;53.486;10.196;2023-05-14T03:43:26;102018.75;;;8.59;100.00
71666;BME280;59503;53.486;10.196;2023-05-14T03:45:51;102022.44;;;8.55;100.00
71666;BME280;59503;53.486;10.196;2023-05-14T03:48:20;102024.97;;;8.51;100.00
71666;BME280;59503;53.486;10.196;2023-05-14T03:50:45;102026.38;;;8.49;100.00
71666;BME280;59503;53.486;10.196;2023-05-14T03:53:11;102016.81;;;8.43;100.00
71666;BME280;59503;53.486;10.196;2023-05-14T03:55:36;102024.78;;;8.39;100.00
71666;BME280;59503;53.486;10.196;2023-05-14T03:58:01;102022.22;;;8.34;100.00
71666;BME280;59503;53.486;10.196;2023-05-14T04:00:27;102018.03;;;8.28;100.00
71666;BME280;59503;53.486;10.196;2023-05-14T04:02:53;102026.97;;;8.29;100.00
71666;BME280;59503;53.486;10.196;2023-05-14T04:05:18;102032.06;;;8.30;100.00
71666;BME280;59503;53.486;10.196;2023-05-14T04:07:44;102031.91;;;8.27;100.00
71666;BME280;59503;53.486;10.196;2023-05-14T04:10:11;102028.41;;;8.26;100.00
71666;BME280;59503;53.486;10.196;2023-05-14T04:12:36;102026.16;;;8.28;100.00
71666;BME280;59503;53.486;10.196;2023-05-14T04:15:02;102030.50;;;8.29;100.00
71666;BME280;59503;53.486;10.196;2023-05-14T04:17:27;102028.28;;;8.31;100.00
71666;BME280;59503;53.486;10.196;2023-05-14T04:19:53;102021.22;;;8.30;100.00
71666;BME280;59503;53.486;10.196;2023-05-14T04:22:18;102029.69;;;8.37;100.00
71666;BME280;59503;53.486;10.196;2023-05-14T04:24:43;102020.97;;;8.49;100.00
71666;BME280;59503;53.486;10.196;2023-05-14T04:27:09;102025.91;;;8.55;100.00
71666;BME280;59503;53.486;10.196;2023-05-14T04:29:34;102024.81;;;8.65;100.00
71666;BME280;59503;53.486;10.196;2023-05-14T04:32:00;102015.09;;;8.72;100.00
71666;BME280;59503;53.486;10.196;2023-05-14T04:34:25;102014.13;;;8.77;100.00
71666;BME280;59503;53.486;10.196;2023-05-14T04:36:50;102027.84;;;8.98;100.00
71666;BME280;59503;53.486;10.196;2023-05-14T04:39:16;102029.63;;;9.02;100.00
71666;BME280;59503;53.486;10.196;2023-05-14T04:41:42;102022.28;;;9.11;100.00
71666;BME280;59503;53.486;10.196;2023-05-14T04:44:08;102021.94;;;9.21;100.00
71666;BME280;59503;53.486;10.196;2023-05-14T04:46:33;102033.44;;;9.27;100.00
71666;BME280;59503;53.486;10.196;2023-05-14T04:48:59;102026.72;;;9.33;100.00
71666;BME280;59503;53.486;10.196;2023-05-14T04:51:24;102025.28;;;9.35;100.00
71666;BME280;59503;53.486;10.196;2023-05-14T04:53:50;102036.59;;;9.46;100.00
71666;BME280;59503;53.486;10.196;2023-05-14T04:56:16;102032.41;;;9.57;100.00
71666;BME280;59503;53.486;10.196;2023-05-14T04:58:41;102037.66;;;9.70;100.00
71666;BME280;59503;53.486;10.196;2023-05-14T05:01:07;102039.50;;;9.87;100.00
71666;BME280;59503;53.486;10.196;2023-05-14T05:03:33;102034.03;;;10.04;100.00
71666;BME280;59503;53.486;10.196;2023-05-14T05:05:58;102038.56;;;10.29;100.00
71666;BME280;59503;53.486;10.196;2023-05-14T05:08:25;102036.34;;;10.72;100.00
71666;BME280;59503;53.486;10.196;2023-05-14T05:10:50;102038.72;;;11.36;100.00
71666;BME280;59503;53.486;10.196;2023-05-14T05:13:15;102031.63;;;12.00;95.96
71666;BME280;59503;53.486;10.196;2023-05-14T05:15:44;102038.19;;;12.59;90.74
71666;BME280;59503;53.486;10.196;2023-05-14T05:18:09;102028.56;;;13.01;85.86
71666;BME280;59503;53.486;10.196;2023-05-14T05:20:35;102031.06;;;13.49;82.34
71666;BME280;59503;53.486;10.196;2023-05-14T05:23:00;102027.16;;;13.94;80.38
71666;BME280;59503;53.486;10.196;2023-05-14T05:25:26;102031.09;;;14.12;78.35
71666;BME280;59503;53.486;10.196;2023-05-14T05:27:51;102034.47;;;14.21;77.31
71666;BME280;59503;53.486;10.196;2023-05-14T05:30:17;102034.22;;;14.41;74.64
71666;BME280;59503;53.486;10.196;2023-05-14T05:32:42;102030.19;;;14.54;74.46
71666;BME280;59503;53.486;10.196;2023-05-14T05:35:08;102030.97;;;14.89;72.41
71666;BME280;59503;53.486;10.196;2023-05-14T05:37:33;102033.78;;;15.12;72.16
71666;BME280;59503;53.486;10.196;2023-05-14T05:39:59;102028.59;;;15.26;71.48
71666;BME280;59503;53.486;10.196;2023-05-14T05:42:24;102027.56;;;15.34;68.91
71666;BME280;59503;53.486;10.196;2023-05-14T05:44:50;102037.59;;;15.46;67.50
71666;BME280;59503;53.486;10.196;2023-05-14T05:47:15;102031.47;;;15.75;66.73
71666;BME280;59503;53.486;10.196;2023-05-14T05:49:41;102027.53;;;15.72;66.11
71666;BME280;59503;53.486;10.196;2023-05-14T05:52:06;102025.13;;;15.93;65.75
71666;BME280;59503;53.486;10.196;2023-05-14T05:54:32;102030.25;;;16.17;64.64
71666;BME280;59503;53.486;10.196;2023-05-14T05:56:58;102032.75;;;15.81;66.09
71666;BME280;59503;53.486;10.196;2023-05-14T05:59:24;102032.94;;;16.14;65.79
71666;BME280;59503;53.486;10.196;2023-05-14T06:01:49;102030.69;;;16.46;64.83
71666;BME280;59503;53.486;10.196;2023-05-14T06:04:15;102037.69;;;16.17;64.66
71666;BME280;59503;53.486;10.196;2023-05-14T06:06:40;102035.88;;;16.28;65.07
71666;BME280;59503;53.486;10.196;2023-05-14T06:09:06;102030.25;;;16.44;65.12
71666;BME280;59503;53.486;10.196;2023-05-14T06:11:33;102029.41;;;16.66;65.28
71666;BME280;59503;53.486;10.196;2023-05-14T06:13:58;102028.16;;;16.89;64.07
71666;BME280;59503;53.486;10.196;2023-05-14T06:16:24;102030.88;;;17.19;62.27
71666;BME280;59503;53.486;10.196;2023-05-14T06:18:49;102027.94;;;17.71;61.57
71666;BME280;59503;53.486;10.196;2023-05-14T06:21:16;102026.88;;;18.33;60.05
71666;BME280;59503;53.486;10.196;2023-05-14T06:23:42;102029.53;;;18.81;57.85
71666;BME280;59503;53.486;10.196;2023-05-14T06:26:08;102030.13;;;19.25;55.10
71666;BME280;59503;53.486;10.196;2023-05-14T06:28:33;102038.06;;;19.44;55.00
71666;BME280;59503;53.486;10.196;2023-05-14T06:30:59;102035.63;;;19.25;54.89
71666;BME280;59503;53.486;10.196;2023-05-14T06:33:24;102031.03;;;19.71;54.12
71666;BME280;59503;53.486;10.196;2023-05-14T06:35:57;102032.63;;;19.75;52.75
71666;BME280;59503;53.486;10.196;2023-05-14T06:38:23;102030.28;;;20.27;51.22
71666;BME280;59503;53.486;10.196;2023-05-14T06:40:49;102025.16;;;20.18;51.36
71666;BME280;59503;53.486;10.196;2023-05-14T06:43:14;102026.72;;;20.30;50.27
71666;BME280;59503;53.486;10.196;2023-05-14T06:45:40;102030.25;;;20.48;50.33
71666;BME280;59503;53.486;10.196;2023-05-14T06:48:05;102026.59;;;20.82;49.03
71666;BME280;59503;53.486;10.196;2023-05-14T06:50:31;102014.44;;;20.55;49.16
71666;BME280;59503;53.486;10.196;2023-05-14T06:52:56;102019.94;;;20.62;48.49
71666;BME280;59503;53.486;10.196;2023-05-14T06:55:22;102022.25;;;20.81;47.69
71666;BME280;59503;53.486;10.196;2023-05-14T06:57:47;102023.41;;;20.94;48.34
71666;BME280;59503;53.486;10.196;2023-05-14T07:00:13;102021.47;;;20.77;47.35
71666;BME280;59503;53.486;10.196;2023-05-14T07:02:39;102019.81;;;21.12;47.49
71666;BME280;59503;53.486;10.196;2023-05-14T07:05:05;102022.91;;;21.21;46.68
71666;BME280;59503;53.486;10.196;2023-05-14T07:07:30;102025.56;;;21.42;46.48
71666;BME280;59503;53.486;10.196;2023-05-14T07:09:56;102018.97;;;21.22;46.14
71666;BME280;59503;53.486;10.196;2023-05-14T07:12:21;102003.09;;;21.26;45.71
71666;BME280;59503;53.486;10.196;2023-05-14T07:14:47;102013.28;;;21.43;46.85
71666;BME280;59503;53.486;10.196;2023-05-14T07:17:12;102004.47;;;21.62;45.14
71666;BME280;59503;53.486;10.196;2023-05-14T07:19:38;102006.59;;;21.40;46.09
71666;BME280;59503;53.486;10.196;2023-05-14T07:22:03;101999.34;;;21.60;45.61
71666;BME280;59503;53.486;10.196;2023-05-14T07:24:29;102002.75;;;21.82;45.48
71666;BME280;59503;53.486;10.196;2023-05-14T07:26:54;101997.91;;;21.93;46.29
71666;BME280;59503;53.486;10.196;2023-05-14T07:29:21;101998.59;;;22.07;45.50
71666;BME280;59503;53.486;10.196;2023-05-14T07:31:47;101990.75;;;21.99;45.52
71666;BME280;59503;53.486;10.196;2023-05-14T07:34:12;101988.16;;;22.22;42.91
71666;BME280;59503;53.486;10.196;2023-05-14T07:36:38;101993.28;;;22.64;43.77
71666;BME280;59503;53.486;10.196;2023-05-14T07:39:03;101992.56;;;22.57;44.14
71666;BME280;59503;53.486;10.196;2023-05-14T07:41:29;101985.88;;;22.51;44.33
71666;BME280;59503;53.486;10.196;2023-05-14T07:43:54;101988.22;;;22.56;45.30
71666;BME280;59503;53.486;10.196;2023-05-14T07:46:20;101988.09;;;22.66;45.18
71666;BME280;59503;53.486;10.196;2023-05-14T07:48:46;101982.28;;;23.17;43.04
71666;BME280;59503;53.486;10.196;2023-05-14T07:51:11;101982.13;;;23.31;42.28
71666;BME280;59503;53.486;10.196;2023-05-14T07:53:37;101981.16;;;23.42;41.40
71666;BME280;59503;53.486;10.196;2023-05-14T07:56:02;101979.38;;;23.55;40.05
71666;BME280;59503;53.486;10.196;2023-05-14T07:58:28;101972.47;;;23.40;42.21
71666;BME280;59503;53.486;10.196;2023-05-14T08:00:54;101974.03;;;23.67;40.03
71666;BME280;59503;53.486;10.196;2023-05-14T08:03:21;101977.19;;;23.92;39.65
71666;BME280;59503;53.486;10.196;2023-05-14T08:05:46;101983.44;;;23.96;40.03
71666;BME280;59503;53.486;10.196;2023-05-14T08:08:12;101970.88;;;24.54;38.74
71666;BME280;59503;53.486;10.196;2023-05-14T08:10:37;101978.03;;;24.12;38.71
71666;BME280;59503;53.486;10.196;2023-05-14T08:13:03;101958.53;;;24.16;36.88
71666;BME280;59503;53.486;10.196;2023-05-14T08:15:29;101971.56;;;24.38;38.25
71666;BME280;59503;53.486;10.196;2023-05-14T08:17:54;101972.38;;;24.39;36.65
71666;BME280;59503;53.486;10.196;2023-05-14T08:20:20;101963.16;;;24.62;37.49
71666;BME280;59503;53.486;10.196;2023-05-14T08:22:45;101958.28;;;24.69;36.24
71666;BME280;59503;53.486;10.196;2023-05-14T08:25:10;101953.06;;;25.07;36.75
71666;BME280;59503;53.486;10.196;2023-05-14T08:27:36;101956.47;;;24.79;37.17
71666;BME280;59503;53.486;10.196;2023-05-14T08:30:02;101952.41;;;24.44;35.01
71666;BME280;59503;53.486;10.196;2023-05-14T08:32:28;101956.13;;;24.96;36.43
71666;BME280;59503;53.486;10.196;2023-05-14T08:34:53;101960.56;;;25.45;35.02
71666;BME280;59503;53.486;10.196;2023-05-14T08:37:19;101957.16;;;25.54;33.53
71666;BME280;59503;53.486;10.196;2023-05-14T08:39:44;101951.66;;;25.18;34.05
71666;BME280;59503;53.486;10.196;2023-05-14T08:42:12;101932.53;;;24.85;34.14
71666;BME280;59503;53.486;10.196;2023-05-14T08:44:48;101944.88;;;25.67;33.24
71666;BME280;59503;53.486;10.196;2023-05-14T08:47:20;101937.22;;;26.04;33.33
71666;BME280;59503;53.486;10.196;2023-05-14T08:49:48;101937.03;;;25.95;31.87
71666;BME280;59503;53.486;10.196;2023-05-14T08:52:17;101932.47;;;26.17;28.53
71666;BME280;59503;53.486;10.196;2023-05-14T08:54:45;101928.34;;;26.21;29.69
71666;BME280;59503;53.486;10.196;2023-05-14T08:57:13;101929.16;;;25.77;28.17
71666;BME280;59503;53.486;10.196;2023-05-14T08:59:39;101928.31;;;25.93;28.24
71666;BME280;59503;53.486;10.196;2023-05-14T09:02:05;101931.16;;;25.44;29.17
71666;BME280;59503;53.486;10.196;2023-05-14T09:04:35;101926.19;;;25.00;29.22
71666;BME280;59503;53.486;10.196;2023-05-14T09:07:02;101923.28;;;25.23;29.23
71666;BME280;59503;53.486;10.196;2023-05-14T09:09:28;101921.91;;;25.31;29.62
71666;BME280;59503;53.486;10.196;2023-05-14T09:11:54;101914.50;;;25.73;28.76
71666;BME280;59503;53.486;10.196;2023-05-14T09:14:22;101914.97;;;25.39;29.45
71666;BME280;59503;53.486;10.196;2023-05-14T09:16:49;101903.81;;;25.23;29.08
71666;BME280;59503;53.486;10.196;2023-05-14T09:19:15;101907.44;;;25.20;29.75
71666;BME280;59503;53.486;10.196;2023-05-14T09:21:44;101896.34;;;25.36;30.18
71666;BME280;59503;53.486;10.196;2023-05-14T09:24:17;101901.63;;;25.63;28.99
71666;BME280;59503;53.486;10.196;2023-05-14T09:26:43;101895.38;;;25.75;28.91
71666;BME280;59503;53.486;10.196;2023-05-14T09:29:08;101894.03;;;25.80;31.14
71666;BME280;59503;53.486;10.196;2023-05-14T09:31:34;101905.13;;;25.67;30.90
71666;BME280;59503;53.486;10.196;2023-05-14T09:34:01;101904.94;;;24.74;29.29
71666;BME280;59503;53.486;10.196;2023-05-14T09:36:28;101891.53;;;24.69;30.42
71666;BME280;59503;53.486;10.196;2023-05-14T09:38:56;101895.53;;;25.20;30.43
71666;BME280;59503;53.486;10.196;2023-05-14T09:41:22;101888.66;;;26.01;30.08
71666;BME280;59503;53.486;10.196;2023-05-14T09:43:49;101888.59;;;26.33;27.86
71666;BME280;59503;53.486;10.196;2023-05-14T09:46:15;101886.22;;;25.74;28.38
71666;BME280;59503;53.486;10.196;2023-05-14T09:48:40;101889.06;;;26.03;29.31
71666;BME280;59503;53.486;10.196;2023-05-14T09:51:05;101885.75;;;26.62;28.85
71666;BME280;59503;53.486;10.196;2023-05-14T09:53:31;101889.72;;;27.02;28.12
71666;BME280;59503;53.486;10.196;2023-05-14T09:55:58;101894.69;;;27.57;25.84
71666;BME280;59503;53.486;10.196;2023-05-14T09:58:23;101883.19;;;26.14;25.82
71666;BME280;59503;53.486;10.196;2023-05-14T10:00:49;101885.00;;;25.76;26.47
71666;BME280;59503;53.486;10.196;2023-05-14T10:03:15;101871.06;;;26.33;26.04
71666;BME280;59503;53.486;10.196;2023-05-14T10:05:43;101865.53;;;26.04;27.71
71666;BME280;59503;53.486;10.196;2023-05-14T10:08:13;101874.25;;;26.60;26.24
71666;BME280;59503;53.486;10.196;2023-05-14T10:10:42;101874.28;;;26.85;27.23
71666;BME280;59503;53.486;10.196;2023-05-14T10:13:12;101869.31;;;26.51;27.84
71666;BME280;59503;53.486;10.196;2023-05-14T10:15:42;101865.09;;;26.47;26.86
71666;BME280;59503;53.486;10.196;2023-05-14T10:18:13;101863.91;;;26.19;28.65
71666;BME280;59503;53.486;10.196;2023-05-14T10:20:40;101857.00;;;26.24;27.62
71666;BME280;59503;53.486;10.196;2023-05-14T10:23:06;101858.72;;;25.60;27.20
71666;BME280;59503;53.486;10.196;2023-05-14T10:25:33;101859.78;;;25.34;27.89
71666;BME280;59503;53.486;10.196;2023-05-14T10:28:00;101855.00;;;25.67;28.41
71666;BME280;59503;53.486;10.196;2023-05-14T10:30:26;101850.91;;;25.07;27.84
71666;BME280;59503;53.486;10.196;2023-05-14T10:33:10;101850.47;;;25.25;29.48
71666;BME280;59503;53.486;10.196;2023-05-14T10:36:06;101849.84;;;24.85;28.77
71666;BME280;59503;53.486;10.196;2023-05-14T10:38:35;101851.53;;;24.43;31.12
71666;BME280;59503;53.486;10.196;2023-05-14T10:41:12;101844.66;;;24.32;31.08
71666;BME280;59503;53.486;10.196;2023-05-14T10:43:40;101844.72;;;23.86;30.40
71666;BME280;59503;53.486;10.196;2023-05-14T10:46:07;101840.75;;;23.67;32.53
71666;BME280;59503;53.486;10.196;2023-05-14T10:48:35;101838.19;;;23.96;31.43
71666;BME280;59503;53.486;10.196;2023-05-14T10:51:01;101835.72;;;23.82;32.46
71666;BME280;59503;53.486;10.196;2023-05-14T10:53:35;101832.94;;;23.82;33.00
71666;BME280;59503;53.486;10.196;2023-05-14T10:56:10;101830.41;;;23.21;32.57
71666;BME280;59503;53.486;10.196;2023-05-14T10:58:42;101835.16;;;22.98;33.58
71666;BME280;59503;53.486;10.196;2023-05-14T11:01:11;101828.28;;;23.06;32.69
71666;BME280;59503;53.486;10.196;2023-05-14T11:03:40;101833.88;;;23.02;33.26
71666;BME280;59503;53.486;10.196;2023-05-14T11:06:06;101829.56;;;23.01;34.69
71666;BME280;59503;53.486;10.196;2023-05-14T11:08:32;101812.28;;;22.90;34.44
71666;BME280;59503;53.486;10.196;2023-05-14T11:10:58;101827.22;;;23.00;33.73
71666;BME280;59503;53.486;10.196;2023-05-14T11:13:25;101819.41;;;22.91;34.11
71666;BME280;59503;53.486;10.196;2023-05-14T11:15:51;101818.47;;;23.01;33.89
71666;BME280;59503;53.486;10.196;2023-05-14T11:18:27;101824.13;;;22.94;33.37
71666;BME280;59503;53.486;10.196;2023-05-14T11:20:56;101811.56;;;22.86;33.96
71666;BME280;59503;53.486;10.196;2023-05-14T11:23:23;101810.72;;;22.89;34.89
71666;BME280;59503;53.486;10.196;2023-05-14T11:25:51;101810.38;;;23.10;34.91
71666;BME280;59503;53.486;10.196;2023-05-14T11:28:19;101801.81;;;23.48;35.69
71666;BME280;59503;53.486;10.196;2023-05-14T11:30:45;101798.38;;;23.63;30.98
71666;BME280;59503;53.486;10.196;2023-05-14T11:33:11;101798.13;;;23.77;30.80
71666;BME280;59503;53.486;10.196;2023-05-14T11:35:36;101802.53;;;24.85;30.71
71666;BME280;59503;53.486;10.196;2023-05-14T11:38:02;101799.75;;;24.85;30.02
71666;BME280;59503;53.486;10.196;2023-05-14T11:40:27;101792.66;;;24.48;29.35
71666;BME280;59503;53.486;10.196;2023-05-14T11:42:53;101796.72;;;24.44;30.03
71666;BME280;59503;53.486;10.196;2023-05-14T11:45:26;101803.53;;;24.59;32.22
71666;BME280;59503;53.486;10.196;2023-05-14T11:47:52;101792.97;;;25.02;29.68
71666;BME280;59503;53.486;10.196;2023-05-14T11:50:20;101789.88;;;24.48;30.33
71666;BME280;59503;53.486;10.196;2023-05-14T11:52:45;101791.31;;;24.37;31.17
71666;BME280;59503;53.486;10.196;2023-05-14T11:55:12;101780.34;;;24.30;30.43
71666;BME280;59503;53.486;10.196;2023-05-14T11:57:38;101780.34;;;23.91;29.68
71666;BME280;59503;53.486;10.196;2023-05-14T12:00:07;101784.31;;;23.51;31.20
71666;BME280;59503;53.486;10.196;2023-05-14T12:02:33;101783.00;;;23.12;31.30
71666;BME280;59503;53.486;10.196;2023-05-14T12:04:59;101785.47;;;23.07;32.10
71666;BME280;59503;53.486;10.196;2023-05-14T12:07:28;101780.44;;;22.98;32.15
71666;BME280;59503;53.486;10.196;2023-05-14T12:09:53;101781.41;;;22.88;31.97
71666;BME280;59503;53.486;10.196;2023-05-14T12:12:20;101783.78;;;22.90;32.00
71666;BME280;59503;53.486;10.196;2023-05-14T12:14:46;101782.75;;;23.03;31.61
71666;BME280;59503;53.486;10.196;2023-05-14T12:17:19;101772.09;;;23.25;31.99
71666;BME280;59503;53.486;10.196;2023-05-14T12:19:47;101770.88;;;23.03;30.80
71666;BME280;59503;53.486;10.196;2023-05-14T12:22:15;101771.28;;;23.24;31.15
71666;BME280;59503;53.486;10.196;2023-05-14T12:24:58;101764.94;;;23.27;31.09
71666;BME280;59503;53.486;10.196;2023-05-14T12:27:25;101762.72;;;23.62;31.75
71666;BME280;59503;53.486;10.196;2023-05-14T12:29:58;101759.69;;;23.53;30.01
71666;BME280;59503;53.486;10.196;2023-05-14T12:32:25;101757.44;;;24.06;30.58
71666;BME280;59503;53.486;10.196;2023-05-14T12:34:50;101753.84;;;24.61;30.47
71666;BME280;59503;53.486;10.196;2023-05-14T12:37:16;101738.44;;;24.56;30.25
71666;BME280;59503;53.486;10.196;2023-05-14T12:39:42;101748.47;;;24.70;28.79
71666;BME280;59503;53.486;10.196;2023-05-14T12:42:08;101743.31;;;24.52;29.92